Airfield :







YOU CAN JOIN US ON...

 
LOGIN :

Register | Disclaimer

   EN    FR    IT 

 









Legend :    VFR   Marginal VFR   IFR   Intensive IFR   Very Intensive IFR
Visi :
Ceiling :
>= 8 km
>= 3000ft
5 to 8 km
1000 to 3000 ft
1500m to 5 km
500 to 1000 ft
800 to 1500m
200 to 500 ft
< 800m
< 200 ft
Symbols :   Thunderstorms  Fog  Heavy snow  Heavy precipitations  Wind > 20 kt







- Airport Elevation : 141 ft
- IATA code : YQI


CYQI - Yarmouth

CURRENT METAR :
  • 210552Z 20020G34KT 3/4SM BR OVC002 12/12 A3017 RMK FG6SF2 SLP218

EXPIRED METARs :
  • 210532Z 18018G26KT 1/2SM FG VV002 11/10 A3017 RMK FG8 SLP218
  • 210500Z 19017G32KT 3/4SM BR OVC002 11/11 A3017 RMK FG6SF2 SLP220
  • 210438Z 20021G32KT 3/4SM BR OVC002 12/12 A3017 RMK FG6SF2 SLP220
  • 210400Z 19018G26KT 1/2SM FG VV002 11/11 A3018 RMK FG8 SLP222
  • 210333Z 19017G27KT 1/8SM FG OVC002 11/11 A3018 RMK FG6SF2 SLP221
  • 210300Z 19017G28KT 3/4SM BR OVC002 11/11 A3017 RMK FG4SF4 SLP219

TAF TAF CYQI
Valid from the 21 at 06:00 until the 21 at 18:00 UTC


210541Z 2106/2118 19015KT 1SM BR VV002
FM211200 17018G28KT 2SM -RA BR OVC003 RMK NXT FCST BY 211200Z
CZQM FIR / North America



MET'MAP, your aeronautical weather chart ! - Copyright ORBIFLY December 2007 - Disclaimer

ORBIFLY MET'MAP TEAM :

Programming & Development : Alexandra Zaïnal
Concept & Development : Baudouin d'Aumeries
Co-Development & Prog : Marc-Olivier Méhu
Technical & hardware support : Manuel Goepfert

Contact : metmap@orbifly.com




SOURCES & CREDITS :

   NOAA